createdAt,value
2019-03-29T00:00:59.172Z,84.88
2019-03-29T00:01:59.021Z,84.36
2019-03-29T00:02:58.998Z,84.88
2019-03-29T00:03:59.012Z,84.67
2019-03-29T00:04:58.977Z,85.39
2019-03-29T00:05:58.966Z,84.99
2019-03-29T00:06:58.957Z,84.43
2019-03-29T00:07:58.944Z,85.67
2019-03-29T00:08:58.969Z,84.53
2019-03-29T00:09:58.930Z,84.06
2019-03-29T00:10:58.915Z,84.64
2019-03-29T00:11:58.899Z,84.43
2019-03-29T00:12:58.892Z,84.12
2019-03-29T00:13:58.877Z,84.22
2019-03-29T00:14:58.889Z,84.01
2019-03-29T00:15:59.988Z,83.29
2019-03-29T00:16:58.848Z,83.91
2019-03-29T00:17:58.836Z,84.16
2019-03-29T00:18:58.822Z,84.33
2019-03-29T00:19:58.838Z,84.36
2019-03-29T00:20:58.798Z,84.78
2019-03-29T00:21:58.789Z,85.81
2019-03-29T00:22:58.783Z,85.19
2019-03-29T00:24:06.716Z,84.78
2019-03-29T00:24:59.782Z,84.67
2019-03-29T00:25:59.118Z,84.47
2019-03-29T00:26:58.734Z,84.67
2019-03-29T00:27:58.722Z,84.88
2019-03-29T00:28:58.713Z,85.71
2019-03-29T00:29:58.730Z,84.67
2019-03-29T00:30:58.693Z,84.64
2019-03-29T00:31:58.682Z,84.36
2019-03-29T00:32:58.669Z,84.36
2019-03-29T00:33:58.658Z,84.57
2019-03-29T00:34:58.669Z,84.99
2019-03-29T00:35:59.229Z,85.39
2019-03-29T00:36:58.640Z,85.36
2019-03-29T00:37:58.611Z,84.74
2019-03-29T00:38:58.601Z,84.43
2019-03-29T00:39:58.628Z,83.40
2019-03-29T00:40:59.008Z,83.71
2019-03-29T00:41:58.566Z,84.22
2019-03-29T00:42:58.559Z,84.53
2019-03-29T00:43:58.547Z,83.91
2019-03-29T00:44:58.534Z,83.91
2019-03-29T00:45:58.546Z,84.01
2019-03-29T00:46:58.511Z,83.61
2019-03-29T00:47:58.504Z,84.33
2019-03-29T00:48:58.490Z,84.16
2019-03-29T00:49:58.483Z,83.91
2019-03-29T00:50:59.113Z,83.71
2019-03-29T00:51:58.456Z,84.57
2019-03-29T00:52:58.446Z,84.53
2019-03-29T00:53:58.438Z,84.12
2019-03-29T00:54:58.425Z,84.43
2019-03-29T00:55:58.435Z,84.43
2019-03-29T00:56:58.398Z,84.06
2019-03-29T00:57:58.391Z,84.27
2019-03-29T00:58:58.377Z,84.36
2019-03-29T00:59:58.369Z,84.57
2019-03-29T01:00:58.384Z,84.78
2019-03-29T01:01:58.349Z,84.47
2019-03-29T01:02:58.336Z,84.67
2019-03-29T01:03:58.327Z,84.47
2019-03-29T01:04:58.314Z,84.57
2019-03-29T01:05:58.324Z,84.81
2019-03-29T01:06:58.288Z,85.44
2019-03-29T01:08:07.848Z,85.44
2019-03-29T01:08:59.266Z,85.75
2019-03-29T01:09:58.260Z,85.64
2019-03-29T01:10:58.268Z,85.75
2019-03-29T01:11:58.233Z,85.54
2019-03-29T01:12:58.895Z,85.44
2019-03-29T01:13:58.213Z,85.78
2019-03-29T01:14:58.209Z,85.78
2019-03-29T01:15:58.215Z,86.20
2019-03-29T01:16:58.179Z,86.41
2019-03-29T01:17:58.171Z,85.99
2019-03-29T01:18:58.160Z,86.47
2019-03-29T01:19:58.151Z,85.99
2019-03-29T01:20:58.166Z,86.30
2019-03-29T01:21:58.126Z,86.20
2019-03-29T01:22:58.204Z,86.10
2019-03-29T01:23:58.106Z,86.51
2019-03-29T01:24:58.096Z,86.82
2019-03-29T01:25:58.118Z,86.82
2019-03-29T01:26:58.068Z,86.61
2019-03-29T01:27:58.060Z,87.23
2019-03-29T01:28:58.052Z,87.44
2019-03-29T01:29:58.037Z,86.82
2019-03-29T01:30:58.029Z,86.10
2019-03-29T01:31:58.035Z,87.34
2019-03-29T01:32:58.922Z,87.34
2019-03-29T01:33:57.990Z,86.10
2019-03-29T01:34:57.979Z,86.36
2019-03-29T01:35:57.972Z,86.30
2019-03-29T01:36:57.981Z,86.30
2019-03-29T01:37:57.950Z,85.78
2019-03-29T01:38:57.941Z,85.99
2019-03-29T01:39:57.927Z,87.02
2019-03-29T01:40:57.917Z,87.02
2019-03-29T01:41:57.926Z,86.30
2019-03-29T01:42:57.891Z,86.10
2019-03-29T01:43:57.965Z,86.96
2019-03-29T01:44:57.888Z,86.82
2019-03-29T01:45:57.859Z,86.86
2019-03-29T01:46:57.875Z,87.27
2019-03-29T01:47:57.836Z,87.48
2019-03-29T01:48:57.828Z,87.48
2019-03-29T01:49:57.820Z,87.07
2019-03-29T01:50:57.803Z,86.41
2019-03-29T01:51:57.822Z,86.51
2019-03-29T01:52:57.786Z,86.71
2019-03-29T01:53:57.772Z,87.23
2019-03-29T01:54:57.762Z,86.82
2019-03-29T01:55:57.751Z,86.41
2019-03-29T01:56:57.762Z,86.51
2019-03-29T01:57:58.954Z,86.41
2019-03-29T01:58:57.722Z,86.51
2019-03-29T01:59:57.704Z,86.71
2019-03-29T02:00:57.695Z,85.99
2019-03-29T02:01:57.706Z,86.71
2019-03-29T02:02:57.675Z,86.71
2019-03-29T02:03:57.667Z,86.24
2019-03-29T02:04:57.652Z,86.41
2019-03-29T02:05:57.642Z,87.17
2019-03-29T02:06:57.663Z,87.07
2019-03-29T02:07:57.619Z,87.07
2019-03-29T02:08:57.608Z,87.79
2019-03-29T02:09:57.594Z,87.13
2019-03-29T02:10:57.585Z,87.17
2019-03-29T02:11:57.595Z,87.58
2019-03-29T02:12:57.563Z,86.55
2019-03-29T02:13:57.560Z,86.86
2019-03-29T02:14:57.543Z,86.86
2019-03-29T02:15:57.531Z,86.76
2019-03-29T02:16:57.554Z,87.07
2019-03-29T02:17:57.509Z,87.07
2019-03-29T02:18:57.497Z,87.07
2019-03-29T02:19:58.133Z,86.96
2019-03-29T02:20:57.477Z,87.27
2019-03-29T02:21:57.466Z,87.58
2019-03-29T02:22:57.475Z,87.68
2019-03-29T02:23:57.442Z,87.02
2019-03-29T02:24:57.437Z,87.17
2019-03-29T02:25:57.422Z,86.20
2019-03-29T02:26:57.409Z,86.34
2019-03-29T02:27:57.420Z,87.17
2019-03-29T02:28:57.387Z,87.48
2019-03-29T02:29:57.382Z,86.76
2019-03-29T02:30:57.545Z,87.17
2019-03-29T02:31:57.356Z,86.96
2019-03-29T02:32:57.364Z,87.48
2019-03-29T02:33:57.335Z,87.17
2019-03-29T02:34:57.324Z,86.96
2019-03-29T02:35:57.314Z,87.68
2019-03-29T02:36:57.310Z,86.96
2019-03-29T02:37:57.314Z,87.79
2019-03-29T02:38:58.979Z,87.89
2019-03-29T02:39:57.267Z,87.17
2019-03-29T02:40:57.255Z,87.41
2019-03-29T02:41:57.274Z,87.41
2019-03-29T02:42:57.256Z,88.04
2019-03-29T02:43:57.224Z,87.83
2019-03-29T02:44:57.214Z,87.52
2019-03-29T02:45:57.798Z,87.31
2019-03-29T02:46:57.189Z,87.93
2019-03-29T02:47:57.200Z,88.45
2019-03-29T02:48:57.175Z,87.48
2019-03-29T02:49:57.162Z,85.86
2019-03-29T02:50:57.152Z,87.21
2019-03-29T02:51:57.133Z,87.21
2019-03-29T02:52:57.148Z,86.69
2019-03-29T02:53:57.114Z,87.41
2019-03-29T02:54:57.100Z,87.52
2019-03-29T02:55:57.097Z,87.73
2019-03-29T02:56:57.082Z,87.41
2019-03-29T02:57:57.093Z,87.83
2019-03-29T02:58:57.060Z,87.10
2019-03-29T02:59:57.062Z,87.62
2019-03-29T03:00:57.038Z,87.76
2019-03-29T03:01:57.027Z,87.83
2019-03-29T03:02:57.050Z,87.87
2019-03-29T03:03:57.005Z,87.31
2019-03-29T03:04:56.992Z,87.97
2019-03-29T03:05:56.988Z,88.49
2019-03-29T03:06:56.974Z,88.39
2019-03-29T03:07:56.993Z,88.49
2019-03-29T03:09:12.329Z,89.11
2019-03-29T03:09:57.939Z,88.24
2019-03-29T03:10:56.925Z,88.04
2019-03-29T03:11:56.919Z,88.76
2019-03-29T03:12:57.047Z,88.14
2019-03-29T03:13:56.897Z,87.66
2019-03-29T03:14:56.889Z,88.07
2019-03-29T03:15:56.882Z,88.39
2019-03-29T03:16:56.865Z,88.59
2019-03-29T03:17:56.857Z,88.49
2019-03-29T03:18:56.871Z,88.24
2019-03-29T03:19:56.831Z,88.70
2019-03-29T03:20:56.818Z,87.87
2019-03-29T03:21:56.808Z,88.18
2019-03-29T03:22:56.796Z,88.39
2019-03-29T03:23:56.828Z,88.39
2019-03-29T03:24:56.777Z,89.22
2019-03-29T03:25:56.798Z,89.11
2019-03-29T03:26:56.753Z,89.11
2019-03-29T03:27:56.749Z,88.49
2019-03-29T03:28:56.753Z,88.49
2019-03-29T03:29:56.719Z,88.90
2019-03-29T03:30:56.716Z,88.45
2019-03-29T03:31:56.708Z,87.93
2019-03-29T03:32:56.690Z,87.04
2019-03-29T03:33:56.710Z,88.59
2019-03-29T03:34:56.667Z,87.52
2019-03-29T03:35:56.671Z,88.65
2019-03-29T03:36:56.644Z,89.11
2019-03-29T03:37:56.632Z,89.22
2019-03-29T03:38:56.655Z,88.39
2019-03-29T03:39:56.610Z,88.28
2019-03-29T03:40:56.612Z,88.94
2019-03-29T03:41:56.586Z,89.11
2019-03-29T03:42:56.601Z,89.11
2019-03-29T03:43:56.580Z,89.01
2019-03-29T03:44:56.599Z,89.17
2019-03-29T03:45:56.542Z,88.76
2019-03-29T03:46:56.533Z,88.70
2019-03-29T03:47:56.522Z,88.80
2019-03-29T03:48:56.512Z,89.04
2019-03-29T03:50:00.662Z,89.32
2019-03-29T03:50:56.488Z,88.80
2019-03-29T03:51:56.481Z,88.96
2019-03-29T03:52:56.477Z,88.59
2019-03-29T03:53:56.457Z,88.07
2019-03-29T03:54:56.466Z,88.59
2019-03-29T03:55:56.440Z,88.39
2019-03-29T03:56:56.426Z,88.28
2019-03-29T03:57:57.990Z,87.56
2019-03-29T03:58:56.402Z,88.18
2019-03-29T03:59:56.413Z,88.74
2019-03-29T04:00:56.508Z,89.25
2019-03-29T04:01:56.367Z,89.36
2019-03-29T04:02:56.359Z,89.87
2019-03-29T04:03:56.348Z,89.73
2019-03-29T04:04:56.366Z,89.25
2019-03-29T04:05:56.331Z,88.59
2019-03-29T04:06:56.324Z,88.84
2019-03-29T04:07:56.305Z,88.94
2019-03-29T04:08:56.297Z,89.04
2019-03-29T04:09:56.309Z,89.19
2019-03-29T04:10:56.275Z,89.29
2019-03-29T04:11:56.260Z,90.33
2019-03-29T04:12:56.249Z,90.02
2019-03-29T04:13:56.238Z,90.12
2019-03-29T04:14:56.266Z,89.40
2019-03-29T04:15:56.220Z,89.81
2019-03-29T04:16:56.220Z,89.61
2019-03-29T04:17:56.200Z,89.40
2019-03-29T04:18:56.184Z,90.23
2019-03-29T04:19:56.198Z,90.12
2019-03-29T04:20:56.167Z,90.02
2019-03-29T04:21:56.155Z,90.19
2019-03-29T04:22:56.142Z,88.84
2019-03-29T04:23:56.131Z,89.36
2019-03-29T04:24:56.159Z,89.25
2019-03-29T04:25:56.116Z,89.92
2019-03-29T04:26:56.098Z,89.67
2019-03-29T04:27:56.090Z,89.25
2019-03-29T04:29:04.172Z,88.84
2019-03-29T04:29:57.389Z,88.90
2019-03-29T04:30:56.084Z,89.15
2019-03-29T04:31:56.051Z,88.84
2019-03-29T04:32:56.045Z,89.15
2019-03-29T04:33:56.024Z,89.25
2019-03-29T04:34:56.010Z,88.94
2019-03-29T04:35:56.023Z,88.84
2019-03-29T04:36:55.997Z,88.84
2019-03-29T04:37:55.980Z,89.25
2019-03-29T04:38:55.967Z,89.40
2019-03-29T04:40:06.779Z,89.77
2019-03-29T04:40:56.974Z,89.46
2019-03-29T04:41:55.941Z,90.12
2019-03-29T04:42:55.934Z,90.12
2019-03-29T04:43:55.911Z,89.25
2019-03-29T04:44:59.655Z,90.19
2019-03-29T04:45:55.916Z,89.11
2019-03-29T04:46:55.883Z,88.80
2019-03-29T04:47:55.875Z,89.01
2019-03-29T04:48:55.857Z,88.94
2019-03-29T04:49:55.855Z,88.90
2019-03-29T04:50:55.903Z,89.17
2019-03-29T04:51:55.830Z,88.80
2019-03-29T04:52:55.815Z,89.22
2019-03-29T04:53:55.806Z,89.11
2019-03-29T04:54:55.795Z,89.11
2019-03-29T04:55:55.810Z,89.42
2019-03-29T04:56:55.774Z,89.11
2019-03-29T04:57:55.763Z,89.11
2019-03-29T04:58:55.746Z,89.32
2019-03-29T04:59:55.736Z,89.11
2019-03-29T05:00:55.749Z,88.80
2019-03-29T05:01:55.718Z,88.74
2019-03-29T05:02:55.708Z,89.25
2019-03-29T05:03:55.695Z,89.98
2019-03-29T05:04:55.683Z,89.09
2019-03-29T05:05:55.705Z,89.15
2019-03-29T05:06:55.662Z,89.92
2019-03-29T05:07:55.653Z,90.02
2019-03-29T05:08:55.640Z,90.08
2019-03-29T05:09:55.626Z,89.98
2019-03-29T05:10:55.644Z,90.29
2019-03-29T05:11:55.606Z,89.15
2019-03-29T05:12:55.596Z,89.87
2019-03-29T05:13:55.592Z,89.87
2019-03-29T05:14:55.571Z,89.67
2019-03-29T05:15:55.597Z,89.56
2019-03-29T05:16:55.554Z,89.15
2019-03-29T05:17:55.546Z,89.32
2019-03-29T05:18:55.610Z,89.22
2019-03-29T05:19:55.520Z,89.25
2019-03-29T05:20:55.510Z,88.90
2019-03-29T05:21:55.525Z,88.90
2019-03-29T05:22:55.488Z,89.32
2019-03-29T05:23:55.479Z,89.28
2019-03-29T05:24:55.463Z,88.49
2019-03-29T05:25:55.454Z,88.55
2019-03-29T05:26:55.465Z,88.65
2019-03-29T05:27:55.433Z,87.73
2019-03-29T05:28:55.421Z,87.83
2019-03-29T05:29:55.416Z,88.04
2019-03-29T05:30:55.398Z,87.76
2019-03-29T05:31:55.410Z,87.41
2019-03-29T05:32:55.382Z,87.21
2019-03-29T05:33:55.364Z,87.62
2019-03-29T05:34:55.353Z,87.62
2019-03-29T05:35:55.345Z,87.52
2019-03-29T05:36:58.333Z,87.52
2019-03-29T05:37:55.332Z,87.27
2019-03-29T05:38:55.313Z,86.96
2019-03-29T05:39:55.302Z,87.37
2019-03-29T05:40:55.291Z,86.92
2019-03-29T05:41:55.302Z,86.82
2019-03-29T05:42:55.266Z,85.99
2019-03-29T05:43:55.260Z,86.41
2019-03-29T05:44:55.245Z,85.89
2019-03-29T05:45:55.234Z,85.89
2019-03-29T05:46:55.249Z,85.64
2019-03-29T05:47:55.217Z,85.99
2019-03-29T05:48:55.228Z,85.27
2019-03-29T05:49:55.194Z,85.89
2019-03-29T05:50:55.178Z,86.30
2019-03-29T05:51:55.192Z,85.99
2019-03-29T05:52:55.166Z,86.16
2019-03-29T05:53:55.145Z,85.95
2019-03-29T05:54:55.139Z,86.05
2019-03-29T05:55:55.121Z,85.75
2019-03-29T05:56:55.150Z,86.05
2019-03-29T05:57:55.101Z,85.81
2019-03-29T05:58:55.088Z,85.25
2019-03-29T05:59:55.080Z,84.01
2019-03-29T06:00:55.072Z,83.36
2019-03-29T06:01:55.058Z,83.36
2019-03-29T06:02:55.072Z,83.26
2019-03-29T06:03:55.036Z,83.22
2019-03-29T06:04:55.023Z,82.50
2019-03-29T06:05:55.012Z,81.98
2019-03-29T06:06:55.001Z,82.09
2019-03-29T06:07:55.012Z,82.09
2019-03-29T06:08:54.978Z,82.46
2019-03-29T06:09:55.039Z,81.23
2019-03-29T06:10:54.957Z,81.43
2019-03-29T06:11:54.946Z,81.02
2019-03-29T06:12:54.958Z,80.81
2019-03-29T06:13:54.922Z,81.70
2019-03-29T06:14:54.911Z,79.91
2019-03-29T06:15:54.900Z,80.12
2019-03-29T06:16:54.892Z,79.30
2019-03-29T06:17:54.918Z,80.12
2019-03-29T06:18:54.867Z,79.50
2019-03-29T06:19:54.857Z,80.22
2019-03-29T06:20:54.846Z,79.36
2019-03-29T06:21:54.858Z,78.64
2019-03-29T06:22:54.851Z,78.54
2019-03-29T06:23:54.810Z,78.54
2019-03-29T06:24:54.799Z,78.81
2019-03-29T06:25:54.790Z,78.81
2019-03-29T06:26:54.792Z,78.06
2019-03-29T06:27:54.790Z,76.93
2019-03-29T06:28:54.768Z,77.23
2019-03-29T06:29:54.743Z,77.65
2019-03-29T06:30:54.733Z,77.65
2019-03-29T06:31:54.724Z,76.48
2019-03-29T06:32:54.733Z,76.68
2019-03-29T06:33:54.698Z,76.17
2019-03-29T06:34:54.685Z,76.07
2019-03-29T06:35:54.696Z,75.59
2019-03-29T06:36:54.666Z,76.21
2019-03-29T06:37:54.684Z,77.00
2019-03-29T06:38:54.642Z,75.56
2019-03-29T06:39:54.634Z,76.79
2019-03-29T06:41:02.654Z,75.25
2019-03-29T06:41:55.613Z,76.38
2019-03-29T06:42:54.646Z,75.56
2019-03-29T06:43:54.629Z,75.11
2019-03-29T06:44:54.592Z,75.62
2019-03-29T06:45:54.569Z,75.11
2019-03-29T06:46:54.613Z,75.62
2019-03-29T06:47:54.582Z,74.87
2019-03-29T06:48:54.540Z,74.57
2019-03-29T06:49:54.533Z,74.66
2019-03-29T06:50:54.553Z,74.87
2019-03-29T06:51:54.522Z,74.63
2019-03-29T06:52:54.524Z,74.43
2019-03-29T06:53:54.479Z,73.91
2019-03-29T06:54:54.472Z,73.88
2019-03-29T06:55:54.476Z,74.39
2019-03-29T06:56:54.452Z,73.68
2019-03-29T06:57:54.435Z,73.27
2019-03-29T06:58:54.443Z,73.03
2019-03-29T06:59:54.411Z,73.95
2019-03-29T07:00:54.401Z,73.95
2019-03-29T07:01:54.386Z,73.03
2019-03-29T07:02:54.391Z,73.13
2019-03-29T07:03:54.385Z,73.23
2019-03-29T07:04:54.361Z,72.78
2019-03-29T07:05:54.345Z,71.97
2019-03-29T07:06:54.349Z,72.38
2019-03-29T07:07:54.323Z,72.58
2019-03-29T07:08:54.345Z,72.96
2019-03-29T07:09:54.308Z,71.94
2019-03-29T07:10:54.426Z,71.22
2019-03-29T07:11:54.283Z,72.14
2019-03-29T07:12:56.404Z,72.45
2019-03-29T07:13:57.662Z,71.59
2019-03-29T07:14:54.255Z,71.15
2019-03-29T07:15:54.250Z,70.95
2019-03-29T07:16:54.227Z,71.22
2019-03-29T07:17:54.215Z,70.61
2019-03-29T07:18:54.231Z,71.01
2019-03-29T07:19:54.198Z,69.79
2019-03-29T07:20:54.188Z,70.30
2019-03-29T07:21:54.172Z,69.79
2019-03-29T07:22:54.167Z,69.76
2019-03-29T07:23:54.174Z,69.45
2019-03-29T07:24:54.137Z,69.04
2019-03-29T07:25:56.376Z,69.35
2019-03-29T07:26:54.120Z,69.45
2019-03-29T07:27:54.103Z,69.01
2019-03-29T07:28:54.115Z,69.01
2019-03-29T07:29:54.087Z,68.40
2019-03-29T07:30:54.078Z,68.50
2019-03-29T07:31:54.058Z,68.70
2019-03-29T07:32:54.049Z,68.80
2019-03-29T07:33:54.067Z,68.60
2019-03-29T07:34:54.027Z,68.88
2019-03-29T07:35:54.015Z,68.67
2019-03-29T07:36:54.023Z,68.37
2019-03-29T07:37:54.001Z,68.06
2019-03-29T07:38:54.021Z,67.85
2019-03-29T07:39:54.146Z,67.35
2019-03-29T07:40:53.962Z,67.82
2019-03-29T07:41:53.963Z,67.76
2019-03-29T07:42:53.946Z,65.52
2019-03-29T07:43:53.931Z,65.42
2019-03-29T07:44:53.940Z,66.44
2019-03-29T07:45:53.910Z,65.72
2019-03-29T07:46:53.895Z,65.72
2019-03-29T07:47:53.886Z,65.01
2019-03-29T07:48:53.875Z,65.59
2019-03-29T07:49:53.885Z,65.11
2019-03-29T07:50:53.851Z,65.92
2019-03-29T07:51:53.881Z,65.42
2019-03-29T07:52:53.833Z,65.92
2019-03-29T07:53:53.820Z,65.62
2019-03-29T07:54:53.834Z,65.92
2019-03-29T07:55:53.799Z,65.22
2019-03-29T07:56:53.806Z,64.87
2019-03-29T07:57:53.775Z,65.49
2019-03-29T07:58:53.782Z,65.19
2019-03-29T07:59:53.778Z,65.42
2019-03-29T08:00:53.745Z,66.03
2019-03-29T08:01:53.757Z,66.03
2019-03-29T08:02:55.187Z,65.59
2019-03-29T08:03:53.726Z,65.39
2019-03-29T08:04:53.741Z,64.84
2019-03-29T08:05:53.693Z,64.41
2019-03-29T08:06:53.694Z,64.54
2019-03-29T08:07:53.687Z,65.46
2019-03-29T08:08:53.677Z,64.84
2019-03-29T08:09:54.256Z,64.51
2019-03-29T08:10:54.211Z,64.81
2019-03-29T08:11:55.140Z,64.61
2019-03-29T08:12:53.692Z,65.22
2019-03-29T08:13:53.605Z,64.20
2019-03-29T08:14:53.621Z,64.20
2019-03-29T08:15:53.590Z,64.72
2019-03-29T08:16:53.667Z,64.69
2019-03-29T08:17:53.565Z,64.28
2019-03-29T08:18:53.551Z,63.77
2019-03-29T08:20:24.398Z,63.97
2019-03-29T08:20:54.524Z,63.26
2019-03-29T08:21:53.515Z,63.13
2019-03-29T08:22:53.539Z,62.55
2019-03-29T08:23:53.499Z,63.36
2019-03-29T08:24:53.509Z,63.49
2019-03-29T08:25:53.477Z,64.84
2019-03-29T08:26:53.470Z,65.33
2019-03-29T08:27:53.449Z,65.02
2019-03-29T08:28:53.440Z,65.02
2019-03-29T08:29:53.457Z,64.18
2019-03-29T08:30:53.416Z,64.79
2019-03-29T08:31:55.454Z,64.83
2019-03-29T08:32:53.395Z,64.42
2019-03-29T08:33:53.408Z,63.00
2019-03-29T08:34:53.400Z,63.06
2019-03-29T08:35:53.372Z,63.43
2019-03-29T08:36:53.360Z,63.57
2019-03-29T08:37:53.343Z,64.18
2019-03-29T08:38:53.337Z,63.97
2019-03-29T08:39:56.330Z,63.33
2019-03-29T08:40:53.319Z,63.51
2019-03-29T08:42:00.065Z,63.40
2019-03-29T08:42:54.295Z,62.90
2019-03-29T08:43:53.279Z,62.59
2019-03-29T08:44:53.265Z,62.70
2019-03-29T08:45:53.279Z,62.49
2019-03-29T08:46:53.244Z,63.20
2019-03-29T08:47:53.239Z,63.02
2019-03-29T08:48:53.243Z,62.90
2019-03-29T08:49:53.216Z,63.00
2019-03-29T08:50:53.244Z,62.79
2019-03-29T08:51:53.214Z,62.59
2019-03-29T08:52:53.179Z,62.59
2019-03-29T08:53:53.169Z,62.87
2019-03-29T08:54:53.190Z,62.05
2019-03-29T08:55:53.196Z,61.93
2019-03-29T08:56:53.150Z,62.13
2019-03-29T08:57:53.127Z,61.39
2019-03-29T08:58:53.173Z,60.91
2019-03-29T08:59:53.123Z,61.62
2019-03-29T09:00:53.117Z,61.62
2019-03-29T09:01:53.120Z,61.39
2019-03-29T09:02:53.074Z,61.66
2019-03-29T09:04:04.738Z,60.72
2019-03-29T09:04:54.079Z,59.30
2019-03-29T09:05:53.084Z,59.61
2019-03-29T09:06:54.170Z,58.62
2019-03-29T09:07:53.020Z,59.86
2019-03-29T09:08:53.045Z,59.84
2019-03-29T09:09:53.050Z,60.72
2019-03-29T09:10:53.011Z,59.61
2019-03-29T09:11:52.990Z,60.11
2019-03-29T09:12:53.002Z,59.84
2019-03-29T09:13:52.952Z,59.23
2019-03-29T09:14:52.944Z,60.17
2019-03-29T09:15:52.955Z,60.04
2019-03-29T09:16:52.924Z,59.81
2019-03-29T09:17:52.908Z,59.70
2019-03-29T09:18:52.910Z,58.39
2019-03-29T09:19:52.920Z,58.62
2019-03-29T09:20:52.901Z,59.00
2019-03-29T09:21:52.868Z,58.18
2019-03-29T09:22:52.904Z,58.59
2019-03-29T09:23:52.846Z,58.49
2019-03-29T09:24:52.836Z,58.36
2019-03-29T09:25:52.846Z,58.03
2019-03-29T09:26:52.839Z,57.45
2019-03-29T09:27:52.827Z,58.11
2019-03-29T09:28:52.807Z,57.88
2019-03-29T09:29:52.779Z,58.36
2019-03-29T09:30:56.205Z,57.24
2019-03-29T09:31:52.769Z,57.45
2019-03-29T09:32:52.749Z,57.22
2019-03-29T09:33:52.751Z,57.32
2019-03-29T09:34:52.725Z,57.86
2019-03-29T09:35:52.746Z,57.83
2019-03-29T09:36:52.703Z,57.73
2019-03-29T09:37:55.021Z,57.90
2019-03-29T09:38:52.680Z,56.89
2019-03-29T09:39:52.683Z,55.24
2019-03-29T09:40:58.841Z,55.24
2019-03-29T09:41:53.647Z,57.09
2019-03-29T09:43:06.818Z,56.86
2019-03-29T09:43:54.503Z,57.07
2019-03-29T09:44:52.618Z,55.68
2019-03-29T09:45:52.852Z,56.26
2019-03-29T09:46:52.618Z,55.93
2019-03-29T09:47:55.749Z,55.93
2019-03-29T09:48:52.593Z,55.42
2019-03-29T09:49:52.562Z,55.09
2019-03-29T09:50:52.550Z,54.21
2019-03-29T09:51:52.564Z,55.82
2019-03-29T09:52:52.530Z,55.82
2019-03-29T09:53:52.547Z,55.09
2019-03-29T09:54:53.991Z,54.28
2019-03-29T09:55:53.536Z,54.00
2019-03-29T09:56:52.534Z,54.51
2019-03-29T09:57:52.504Z,54.28
2019-03-29T09:58:52.469Z,53.80
2019-03-29T09:59:52.451Z,53.58
2019-03-29T10:00:52.495Z,53.65
2019-03-29T10:01:54.270Z,53.85
2019-03-29T10:02:52.441Z,53.05
2019-03-29T10:03:52.428Z,53.09
2019-03-29T10:04:52.398Z,54.51
2019-03-29T10:05:52.387Z,53.47
2019-03-29T10:06:52.452Z,53.88
2019-03-29T10:07:52.364Z,53.55
2019-03-29T10:08:53.493Z,51.73
2019-03-29T10:09:52.345Z,53.17
2019-03-29T10:10:52.341Z,53.90
2019-03-29T10:11:52.345Z,53.60
2019-03-29T10:12:52.324Z,53.75
2019-03-29T10:13:52.301Z,55.15
2019-03-29T10:14:52.292Z,54.58
2019-03-29T10:15:52.291Z,53.42
2019-03-29T10:16:52.295Z,51.98
2019-03-29T10:17:52.275Z,51.76
2019-03-29T10:18:52.286Z,51.98
2019-03-29T10:19:52.464Z,50.87
2019-03-29T10:20:52.245Z,51.15
2019-03-29T10:21:52.237Z,51.15
2019-03-29T10:22:52.220Z,50.87
2019-03-29T10:23:52.191Z,49.74
2019-03-29T10:24:52.185Z,50.75
2019-03-29T10:25:52.170Z,50.55
2019-03-29T10:26:52.184Z,49.74
2019-03-29T10:27:52.149Z,51.07
2019-03-29T10:28:52.150Z,51.78
2019-03-29T10:29:52.130Z,50.73
2019-03-29T10:30:52.132Z,50.22
2019-03-29T10:31:52.170Z,49.90
2019-03-29T10:32:55.290Z,49.67
2019-03-29T10:33:52.096Z,48.96
2019-03-29T10:34:52.074Z,47.83
2019-03-29T10:35:53.076Z,47.75
2019-03-29T10:36:52.098Z,48.56
2019-03-29T10:37:52.044Z,48.46
2019-03-29T10:38:52.058Z,48.86
2019-03-29T10:39:52.023Z,47.13
2019-03-29T10:40:52.007Z,46.73
2019-03-29T10:41:51.997Z,47.41
2019-03-29T10:42:58.027Z,47.19
2019-03-29T10:43:52.990Z,46.53
2019-03-29T10:44:51.968Z,47.00
2019-03-29T10:45:52.036Z,47.08
2019-03-29T10:46:52.004Z,46.88
2019-03-29T10:47:51.957Z,45.75
2019-03-29T10:48:51.934Z,46.88
2019-03-29T10:49:51.916Z,48.03
2019-03-29T10:50:51.900Z,47.78
2019-03-29T10:51:51.889Z,48.49
2019-03-29T10:52:51.901Z,47.96
2019-03-29T10:53:51.866Z,47.67
2019-03-29T10:54:51.859Z,49.69
2019-03-29T10:55:51.860Z,49.59
2019-03-29T10:56:51.862Z,49.52
2019-03-29T10:57:51.847Z,48.58
2019-03-29T10:58:51.832Z,47.20
2019-03-29T10:59:51.803Z,46.68
2019-03-29T11:00:51.792Z,46.48
2019-03-29T11:01:51.781Z,46.88
2019-03-29T11:02:51.839Z,47.81
2019-03-29T11:03:51.761Z,46.83
2019-03-29T11:04:51.758Z,48.16
2019-03-29T11:05:51.761Z,47.07
2019-03-29T11:06:51.755Z,47.80
2019-03-29T11:07:51.740Z,48.30
2019-03-29T11:08:51.710Z,46.53
2019-03-29T11:09:51.696Z,46.10
2019-03-29T11:10:51.682Z,46.48
2019-03-29T11:11:51.679Z,45.37
2019-03-29T11:12:51.713Z,45.65
2019-03-29T11:13:51.652Z,44.20
2019-03-29T11:14:51.639Z,44.31
2019-03-29T11:15:51.634Z,43.58
2019-03-29T11:16:51.721Z,44.08
2019-03-29T11:17:51.638Z,42.86
2019-03-29T11:18:51.612Z,43.48
2019-03-29T11:19:51.844Z,44.06
2019-03-29T11:20:51.635Z,43.64
2019-03-29T11:21:51.599Z,44.64
2019-03-29T11:22:51.611Z,43.62
2019-03-29T11:23:51.550Z,43.22
2019-03-29T11:24:51.533Z,42.94
2019-03-29T11:25:51.545Z,43.36
2019-03-29T11:26:51.513Z,44.56
2019-03-29T11:27:51.604Z,44.08
2019-03-29T11:28:51.491Z,43.98
2019-03-29T11:29:51.522Z,43.26
2019-03-29T11:30:51.465Z,43.24
2019-03-29T11:31:51.493Z,43.04
2019-03-29T11:32:51.478Z,43.94
2019-03-29T11:33:51.435Z,44.02
2019-03-29T11:34:51.434Z,42.77
2019-03-29T11:35:51.499Z,42.38
2019-03-29T11:36:52.725Z,41.67
2019-03-29T11:37:51.424Z,43.76
2019-03-29T11:38:52.379Z,44.24
2019-03-29T11:39:51.383Z,44.12
2019-03-29T11:40:51.363Z,44.32
2019-03-29T11:41:51.355Z,42.96
2019-03-29T11:42:51.384Z,43.86
2019-03-29T11:43:51.329Z,43.54
2019-03-29T11:44:51.314Z,43.52
2019-03-29T11:45:51.321Z,43.30
2019-03-29T11:46:51.319Z,43.30
2019-03-29T11:47:51.334Z,43.38
2019-03-29T11:48:51.271Z,41.47
2019-03-29T11:49:52.744Z,42.85
2019-03-29T11:50:51.269Z,41.07
2019-03-29T11:51:51.239Z,42.40
2019-03-29T11:52:51.238Z,42.96
2019-03-29T11:53:51.562Z,41.61
2019-03-29T11:54:51.219Z,41.75
2019-03-29T11:55:51.195Z,41.53
2019-03-29T11:56:51.191Z,41.33
2019-03-29T11:57:51.184Z,41.89
2019-03-29T11:58:51.204Z,42.88
2019-03-29T11:59:51.152Z,44.63
2019-03-29T12:00:51.156Z,44.23
2019-03-29T12:01:51.137Z,45.95
2019-03-29T12:02:51.122Z,45.98
2019-03-29T12:03:51.211Z,46.70
2019-03-29T12:04:51.102Z,45.87
2019-03-29T12:05:51.095Z,45.73
2019-03-29T12:06:51.080Z,46.01
2019-03-29T12:07:51.123Z,44.99
2019-03-29T12:08:51.079Z,45.51
2019-03-29T12:09:51.053Z,44.24
2019-03-29T12:10:51.068Z,43.18
2019-03-29T12:11:51.034Z,42.25
2019-03-29T12:12:51.011Z,42.41
2019-03-29T12:13:51.039Z,40.03
2019-03-29T12:14:50.989Z,40.93
2019-03-29T12:15:50.997Z,40.01
2019-03-29T12:16:50.982Z,40.37
2019-03-29T12:17:50.959Z,40.81
2019-03-29T12:18:50.974Z,40.69
2019-03-29T12:19:50.942Z,38.56
2019-03-29T12:20:54.161Z,39.36
2019-03-29T12:21:50.913Z,39.36
2019-03-29T12:22:50.903Z,40.12
2019-03-29T12:23:50.918Z,39.30
2019-03-29T12:24:50.881Z,38.10
2019-03-29T12:25:50.873Z,38.20
2019-03-29T12:26:50.859Z,37.79
2019-03-29T12:27:50.847Z,37.60
2019-03-29T12:28:50.859Z,38.22
2019-03-29T12:29:50.825Z,38.31
2019-03-29T12:30:50.820Z,36.80
2019-03-29T12:31:50.804Z,38.12
2019-03-29T12:32:50.794Z,38.10
2019-03-29T12:33:50.805Z,36.71
2019-03-29T12:34:50.771Z,37.90
2019-03-29T12:35:50.762Z,37.64
2019-03-29T12:36:50.756Z,38.20
2019-03-29T12:37:50.742Z,40.23
2019-03-29T12:38:50.759Z,40.39
2019-03-29T12:39:50.731Z,39.26
2019-03-29T12:40:50.706Z,37.60
2019-03-29T12:41:50.703Z,37.98
2019-03-29T12:42:50.683Z,36.59
2019-03-29T12:43:55.779Z,38.14
2019-03-29T12:44:51.662Z,40.01
2019-03-29T12:45:50.652Z,40.16
2019-03-29T12:46:50.642Z,40.04
2019-03-29T12:47:50.636Z,38.31
2019-03-29T12:48:50.687Z,36.80
2019-03-29T12:49:50.609Z,37.56
2019-03-29T12:50:50.598Z,39.48
2019-03-29T12:51:50.587Z,38.06
2019-03-29T12:52:50.576Z,39.69